Friday, September 21, 2018, 9:26 PM EDT
Back to Local

KDYL, Doylestown Airport

Location: Doylestown, PA, United States Lat: 40.333
Local Time: 9:26 PM EDT ( 1:26 GMT) Lon: -75.117
Time Zone: US/Eastern Elev: 393 ft

Show me the last for .
Show Decoded

2018-09-21 20:54 METAR KDYL 220054Z AUTO 19005KT 10SM OVC029 22/19 A3003 RMK AO2 SLP165 T02220189
                 =
2018-09-21 19:54 METAR KDYL 212354Z AUTO 18007KT 150V230 10SM OVC028 22/19 A3001 RMK AO2 SLP157
                 T02220189 10228 20222 56024 =
2018-09-21 18:54 METAR KDYL 212254Z AUTO 19004KT 10SM OVC024 22/19 A3003 RMK AO2 SLP166 T02220189
                 =
2018-09-21 18:19 METAR KDYL 212219Z AUTO 20007KT 10SM BKN027 OVC032 23/18 A3004 RMK AO2 T02280183
                 =
2018-09-21 17:54 METAR KDYL 212154Z AUTO 18007KT 10SM FEW026 BKN034 23/18 A3004 RMK AO2 SLP169
                 T02280183 =
2018-09-21 17:37 METAR KDYL 212137Z AUTO 18005KT 10SM SCT025 BKN035 22/18 A3005 RMK AO2 T02220183
                 =
2018-09-21 16:54 METAR KDYL 212054Z AUTO VRB05KT 10SM OVC025 22/18 A3008 RMK AO2 SLP181 T02220183
                 56023 =
2018-09-21 15:54 METAR KDYL 211954Z AUTO 18005KT 10SM OVC028 23/18 A3010 RMK AO2 SLP187 T02280178
                 =
2018-09-21 14:54 METAR KDYL 211854Z AUTO 18006KT 10SM BKN030 OVC037 23/18 A3012 RMK AO2 SLP194
                 T02280178 =
2018-09-21 13:54 METAR KDYL 211754Z AUTO 17008KT 10SM BKN023 OVC032 22/18 A3014 RMK AO2 SLP204
                 T02220178 10228 20178 58024 =
2018-09-21 12:54 METAR KDYL 211654Z AUTO 18007KT 140V210 10SM BKN022 BKN028 OVC038 23/18 A3017
                 RMK AO2 SLP211 T02280178 =
2018-09-21 11:54 METAR KDYL 211554Z AUTO 17007KT 10SM BKN020 BKN026 OVC037 21/17 A3020 RMK AO2
                 SLP222 T02060172 =
2018-09-21 11:26 METAR KDYL 211526Z AUTO 18007KT 10SM BKN018 BKN030 OVC037 21/17 A3020 RMK AO2
                 T02060172 =
2018-09-21 10:54 METAR KDYL 211454Z AUTO VRB06KT 10SM OVC036 20/17 A3022 RMK AO2 SLP229 T02000167
                 58012 =
2018-09-21 10:15 METAR KDYL 211415Z AUTO VRB04KT 10SM FEW021 SCT026 OVC036 19/17 A3023 RMK AO2
                 T01940172 =
2018-09-21 09:54 METAR KDYL 211354Z AUTO VRB03KT 10SM BKN021 BKN026 OVC037 19/17 A3024 RMK AO2
                 SLP236 T01940172 =
2018-09-21 09:23 METAR KDYL 211323Z AUTO 15004KT 10SM BKN021 OVC036 19/17 A3024 RMK AO2 T01890167
                 =
2018-09-21 08:54 METAR KDYL 211254Z AUTO 18005KT 10SM FEW021 SCT027 OVC035 18/17 A3024 RMK AO2
                 SLP237 T01830167 =
2018-09-21 08:38 METAR KDYL 211238Z AUTO VRB05KT 10SM SCT025 OVC035 18/17 A3024 RMK AO2 T01830167
                 =
2018-09-21 07:54 METAR KDYL 211154Z AUTO VRB04KT 10SM BKN027 OVC036 18/17 A3025 RMK AO2 SLP242
                 T01780167 10178 20172 51006 =
2018-09-21 07:34 METAR KDYL 211134Z AUTO VRB03KT 10SM BKN028 OVC036 18/16 A3025 RMK AO2 T01780161
                 =
2018-09-21 06:54 METAR KDYL 211054Z AUTO 00000KT 10SM SCT026 OVC035 18/16 A3025 RMK AO2 SLP242
                 T01780161 =
2018-09-21 05:54 METAR KDYL 210954Z AUTO 00000KT 10SM FEW019 OVC034 18/16 A3025 RMK AO2 SLP240
                 T01780161 =
2018-09-21 04:54 METAR KDYL 210854Z AUTO 00000KT 10SM OVC033 18/16 A3023 RMK AO2 SLP236 T01780161
                 55002 =
2018-09-21 03:54 METAR KDYL 210754Z AUTO 00000KT 10SM FEW020 OVC032 18/16 A3023 RMK AO2 SLP235
                 T01780161 =
2018-09-21 02:54 METAR KDYL 210654Z AUTO 00000KT 10SM OVC033 17/16 A3023 RMK AO2 SLP235 T01720161
                 =
2018-09-21 01:54 METAR KDYL 210554Z AUTO 00000KT 10SM OVC031 18/16 A3024 RMK AO2 SLP238 T01780161
                 10194 20172 58004 =
2018-09-21 00:54 METAR KDYL 210454Z AUTO 00000KT 10SM BKN035 OVC065 18/16 A3025 RMK AO2 SLP241
                 T01780161 402170178 =
2018-09-21 00:36 METAR KDYL 210436Z AUTO 00000KT 10SM OVC030 18/16 A3026 RMK AO2 T01780161 =
2018-09-20 23:54 METAR KDYL 210354Z AUTO 00000KT 10SM BKN029 OVC050 18/16 A3025 RMK AO2 SLP241
                 T01780156 =
2018-09-20 23:20 METAR KDYL 210320Z AUTO VRB05KT 10SM SCT027 OVC049 18/16 A3025 RMK AO2 T01830156
                 =
2018-09-20 22:54 METAR KDYL 210254Z AUTO 00000KT 10SM OVC026 18/16 A3025 RMK AO2 SLP242 T01830156
                 53012 =
2018-09-20 22:28 METAR KDYL 210228Z AUTO 17004KT 10SM BKN026 OVC049 18/16 A3025 RMK AO2 T01830156
                 =
2018-09-20 22:02 METAR KDYL 210202Z AUTO 00000KT 10SM SCT025 OVC047 18/16 A3024 RMK AO2 T01830161
                 =
2018-09-20 21:54 METAR KDYL 210154Z AUTO VRB03KT 10SM BKN025 OVC045 18/16 A3024 RMK AO2 SLP239
                 T01830161 =
2018-09-20 21:31 METAR KDYL 210131Z AUTO VRB03KT 10SM BKN025 BKN032 OVC047 19/16 A3024 RMK AO2
                 T01890161 =

Support USWX by starting your Amazon purchase here.